createdAt,value
2019-03-04T00:00:25.231Z,966.21
2019-03-04T00:01:25.220Z,966.22
2019-03-04T00:02:25.216Z,966.20
2019-03-04T00:03:25.196Z,966.21
2019-03-04T00:04:25.214Z,966.18
2019-03-04T00:05:25.210Z,966.11
2019-03-04T00:06:25.213Z,966.12
2019-03-04T00:07:25.166Z,966.08
2019-03-04T00:08:25.171Z,966.00
2019-03-04T00:09:25.162Z,966.01
2019-03-04T00:10:25.154Z,966.05
2019-03-04T00:11:25.136Z,965.99
2019-03-04T00:12:25.141Z,966.01
2019-03-04T00:13:25.100Z,965.95
2019-03-04T00:14:25.095Z,965.91
2019-03-04T00:15:25.138Z,965.93
2019-03-04T00:16:25.059Z,965.92
2019-03-04T00:17:25.070Z,966.01
2019-03-04T00:18:25.043Z,966.02
2019-03-04T00:19:25.063Z,966.01
2019-03-04T00:20:25.057Z,965.97
2019-03-04T00:21:25.014Z,965.93
2019-03-04T00:22:25.014Z,966.01
2019-03-04T00:23:25.001Z,966.01
2019-03-04T00:24:25.008Z,965.98
2019-03-04T00:25:24.980Z,965.96
2019-03-04T00:26:24.951Z,965.98
2019-03-04T00:27:24.940Z,965.99
2019-03-04T00:28:24.930Z,966.00
2019-03-04T00:29:24.941Z,966.00
2019-03-04T00:30:24.953Z,965.97
2019-03-04T00:31:24.900Z,965.96
2019-03-04T00:32:24.884Z,965.91
2019-03-04T00:33:24.872Z,965.92
2019-03-04T00:34:24.952Z,965.93
2019-03-04T00:35:24.885Z,965.88
2019-03-04T00:36:24.839Z,965.88
2019-03-04T00:37:24.829Z,965.92
2019-03-04T00:38:24.855Z,965.90
2019-03-04T00:39:24.815Z,965.91
2019-03-04T00:40:24.814Z,965.79
2019-03-04T00:41:24.820Z,965.82
2019-03-04T00:42:24.829Z,965.75
2019-03-04T00:43:24.778Z,965.73
2019-03-04T00:44:24.770Z,965.71
2019-03-04T00:45:24.748Z,965.69
2019-03-04T00:46:24.755Z,965.72
2019-03-04T00:47:24.777Z,965.65
2019-03-04T00:48:24.762Z,965.64
2019-03-04T00:49:24.693Z,965.65
2019-03-04T00:50:24.696Z,965.62
2019-03-04T00:51:24.705Z,965.54
2019-03-04T00:52:24.683Z,965.53
2019-03-04T00:53:24.721Z,965.58
2019-03-04T00:54:24.646Z,965.53
2019-03-04T00:55:24.650Z,965.60
2019-03-04T00:56:24.651Z,965.55
2019-03-04T00:57:24.621Z,965.61
2019-03-04T00:58:24.638Z,965.48
2019-03-04T00:59:24.590Z,965.48
2019-03-04T01:00:24.576Z,965.48
2019-03-04T01:01:24.572Z,965.50
2019-03-04T01:02:24.559Z,965.43
2019-03-04T01:03:24.555Z,965.40
2019-03-04T01:04:24.538Z,965.45
2019-03-04T01:05:24.544Z,965.43
2019-03-04T01:06:24.622Z,965.45
2019-03-04T01:07:24.501Z,965.41
2019-03-04T01:08:24.488Z,965.37
2019-03-04T01:09:24.520Z,965.38
2019-03-04T01:10:24.483Z,965.34
2019-03-04T01:11:24.480Z,965.28
2019-03-04T01:12:24.469Z,965.39
2019-03-04T01:13:24.436Z,965.25
2019-03-04T01:14:24.424Z,965.22
2019-03-04T01:15:24.443Z,965.24
2019-03-04T01:16:24.416Z,965.18
2019-03-04T01:17:24.401Z,965.27
2019-03-04T01:18:24.384Z,965.22
2019-03-04T01:19:24.380Z,965.28
2019-03-04T01:20:24.392Z,965.26
2019-03-04T01:21:24.388Z,965.29
2019-03-04T01:22:24.337Z,965.28
2019-03-04T01:23:24.322Z,965.27
2019-03-04T01:24:24.318Z,965.20
2019-03-04T01:25:24.372Z,965.18
2019-03-04T01:26:24.307Z,965.13
2019-03-04T01:27:24.299Z,965.14
2019-03-04T01:28:24.278Z,965.14
2019-03-04T01:29:24.330Z,965.07
2019-03-04T01:30:24.274Z,965.15
2019-03-04T01:31:24.275Z,965.04
2019-03-04T01:32:24.231Z,965.04
2019-03-04T01:33:24.232Z,965.07
2019-03-04T01:34:24.207Z,965.01
2019-03-04T01:35:24.208Z,965.02
2019-03-04T01:36:24.192Z,964.99
2019-03-04T01:37:24.190Z,965.04
2019-03-04T01:38:24.178Z,964.96
2019-03-04T01:39:24.176Z,964.99
2019-03-04T01:40:24.180Z,965.07
2019-03-04T01:41:24.132Z,965.15
2019-03-04T01:42:24.126Z,965.07
2019-03-04T01:43:24.115Z,965.01
2019-03-04T01:44:24.185Z,965.00
2019-03-04T01:45:24.168Z,964.97
2019-03-04T01:46:24.136Z,964.97
2019-03-04T01:47:24.102Z,964.92
2019-03-04T01:48:24.060Z,964.94
2019-03-04T01:49:24.080Z,964.85
2019-03-04T01:50:24.079Z,964.93
2019-03-04T01:51:24.105Z,964.86
2019-03-04T01:52:24.025Z,964.88
2019-03-04T01:53:24.008Z,964.87
2019-03-04T01:54:24.002Z,964.89
2019-03-04T01:55:24.068Z,964.78
2019-03-04T01:56:23.990Z,964.83
2019-03-04T01:57:23.963Z,964.75
2019-03-04T01:58:23.949Z,964.71
2019-03-04T01:59:23.950Z,964.75
2019-03-04T02:00:23.931Z,964.70
2019-03-04T02:01:23.921Z,964.70
2019-03-04T02:02:23.987Z,964.67
2019-03-04T02:03:23.899Z,964.63
2019-03-04T02:04:23.899Z,964.60
2019-03-04T02:05:23.924Z,964.59
2019-03-04T02:06:23.872Z,964.58
2019-03-04T02:07:23.885Z,964.49
2019-03-04T02:08:23.995Z,964.45
2019-03-04T02:09:23.835Z,964.45
2019-03-04T02:10:23.829Z,964.34
2019-03-04T02:11:23.817Z,964.31
2019-03-04T02:12:23.824Z,964.27
2019-03-04T02:13:23.827Z,964.26
2019-03-04T02:14:23.784Z,964.28
2019-03-04T02:15:23.843Z,964.24
2019-03-04T02:16:23.765Z,964.24
2019-03-04T02:17:23.781Z,964.14
2019-03-04T02:18:23.754Z,964.19
2019-03-04T02:19:23.766Z,964.17
2019-03-04T02:20:23.733Z,964.15
2019-03-04T02:21:23.798Z,964.13
2019-03-04T02:22:23.687Z,964.08
2019-03-04T02:23:23.713Z,964.07
2019-03-04T02:24:23.669Z,963.99
2019-03-04T02:25:23.655Z,964.09
2019-03-04T02:26:23.651Z,964.22
2019-03-04T02:27:24.573Z,964.14
2019-03-04T02:28:23.629Z,964.16
2019-03-04T02:29:23.629Z,964.21
2019-03-04T02:30:23.620Z,964.23
2019-03-04T02:31:23.623Z,964.16
2019-03-04T02:32:23.598Z,964.14
2019-03-04T02:33:23.570Z,964.05
2019-03-04T02:34:23.581Z,964.15
2019-03-04T02:35:23.553Z,964.19
2019-03-04T02:36:23.544Z,964.18
2019-03-04T02:37:23.867Z,964.12
2019-03-04T02:38:23.531Z,964.08
2019-03-04T02:39:23.576Z,963.99
2019-03-04T02:40:23.532Z,964.05
2019-03-04T02:41:23.574Z,963.95
2019-03-04T02:42:23.557Z,964.06
2019-03-04T02:43:23.469Z,963.95
2019-03-04T02:44:23.467Z,963.86
2019-03-04T02:45:23.461Z,963.87
2019-03-04T02:46:23.476Z,963.87
2019-03-04T02:47:23.433Z,963.86
2019-03-04T02:48:23.472Z,963.81
2019-03-04T02:49:23.416Z,963.82
2019-03-04T02:50:23.396Z,963.80
2019-03-04T02:51:23.396Z,963.75
2019-03-04T02:52:23.365Z,963.70
2019-03-04T02:53:23.366Z,963.72
2019-03-04T02:54:23.348Z,963.66
2019-03-04T02:55:23.430Z,963.67
2019-03-04T02:56:23.400Z,963.69
2019-03-04T02:57:23.311Z,963.61
2019-03-04T02:58:23.297Z,963.61
2019-03-04T02:59:23.292Z,963.57
2019-03-04T03:00:23.297Z,963.48
2019-03-04T03:01:23.281Z,963.39
2019-03-04T03:02:23.307Z,963.44
2019-03-04T03:03:23.262Z,963.40
2019-03-04T03:04:23.333Z,963.47
2019-03-04T03:05:23.224Z,963.43
2019-03-04T03:06:23.240Z,963.46
2019-03-04T03:07:23.202Z,963.44
2019-03-04T03:08:23.195Z,963.40
2019-03-04T03:09:23.187Z,963.35
2019-03-04T03:10:23.200Z,963.34
2019-03-04T03:11:23.221Z,963.33
2019-03-04T03:12:23.148Z,963.33
2019-03-04T03:13:23.136Z,963.34
2019-03-04T03:14:23.123Z,963.31
2019-03-04T03:15:23.112Z,963.19
2019-03-04T03:16:23.124Z,963.24
2019-03-04T03:17:23.150Z,963.33
2019-03-04T03:18:23.129Z,963.27
2019-03-04T03:19:23.098Z,963.31
2019-03-04T03:20:23.099Z,963.27
2019-03-04T03:21:23.124Z,963.25
2019-03-04T03:22:23.086Z,963.23
2019-03-04T03:23:23.029Z,963.16
2019-03-04T03:24:23.108Z,963.19
2019-03-04T03:25:23.011Z,963.18
2019-03-04T03:26:23.002Z,963.22
2019-03-04T03:27:23.053Z,963.19
2019-03-04T03:28:23.046Z,963.14
2019-03-04T03:29:23.095Z,963.14
2019-03-04T03:30:23.051Z,963.02
2019-03-04T03:31:23.024Z,963.09
2019-03-04T03:32:22.957Z,963.13
2019-03-04T03:33:22.971Z,963.02
2019-03-04T03:34:22.928Z,963.01
2019-03-04T03:35:23.004Z,962.93
2019-03-04T03:36:22.900Z,962.91
2019-03-04T03:37:22.890Z,962.95
2019-03-04T03:38:22.920Z,963.05
2019-03-04T03:39:22.856Z,962.89
2019-03-04T03:40:22.850Z,962.89
2019-03-04T03:41:22.835Z,962.91
2019-03-04T03:42:22.826Z,962.92
2019-03-04T03:43:22.823Z,962.93
2019-03-04T03:44:22.850Z,962.92
2019-03-04T03:45:22.922Z,962.93
2019-03-04T03:46:22.779Z,962.86
2019-03-04T03:47:22.792Z,962.86
2019-03-04T03:48:22.786Z,962.86
2019-03-04T03:49:22.758Z,962.79
2019-03-04T03:50:22.784Z,962.80
2019-03-04T03:51:22.793Z,962.73
2019-03-04T03:52:22.765Z,962.73
2019-03-04T03:53:22.824Z,962.75
2019-03-04T03:54:22.710Z,962.73
2019-03-04T03:55:22.682Z,962.70
2019-03-04T03:56:22.674Z,962.67
2019-03-04T03:57:22.693Z,962.74
2019-03-04T03:58:25.115Z,962.62
2019-03-04T03:59:22.870Z,962.64
2019-03-04T04:00:22.662Z,962.67
2019-03-04T04:01:22.627Z,962.66
2019-03-04T04:02:22.624Z,962.64
2019-03-04T04:03:22.658Z,962.64
2019-03-04T04:04:22.584Z,962.63
2019-03-04T04:05:22.568Z,962.69
2019-03-04T04:06:22.574Z,962.58
2019-03-04T04:07:22.930Z,962.62
2019-03-04T04:08:22.655Z,962.59
2019-03-04T04:09:22.535Z,962.57
2019-03-04T04:10:22.523Z,962.55
2019-03-04T04:11:22.507Z,962.55
2019-03-04T04:12:22.523Z,962.48
2019-03-04T04:13:22.608Z,962.49
2019-03-04T04:14:22.473Z,962.43
2019-03-04T04:15:22.472Z,962.45
2019-03-04T04:16:22.465Z,962.45
2019-03-04T04:17:22.470Z,962.43
2019-03-04T04:18:22.430Z,962.47
2019-03-04T04:19:22.556Z,962.44
2019-03-04T04:20:22.576Z,962.39
2019-03-04T04:21:22.406Z,962.40
2019-03-04T04:22:22.412Z,962.34
2019-03-04T04:23:22.393Z,962.33
2019-03-04T04:24:22.371Z,962.31
2019-03-04T04:25:22.355Z,962.31
2019-03-04T04:26:22.360Z,962.30
2019-03-04T04:27:22.503Z,962.29
2019-03-04T04:28:22.442Z,962.21
2019-03-04T04:29:22.314Z,962.17
2019-03-04T04:30:22.342Z,962.20
2019-03-04T04:31:22.312Z,962.18
2019-03-04T04:32:22.414Z,962.16
2019-03-04T04:33:22.275Z,962.17
2019-03-04T04:34:22.285Z,962.20
2019-03-04T04:35:22.246Z,962.17
2019-03-04T04:36:22.232Z,962.08
2019-03-04T04:37:22.224Z,962.05
2019-03-04T04:38:22.232Z,962.06
2019-03-04T04:39:22.250Z,962.08
2019-03-04T04:40:22.248Z,962.10
2019-03-04T04:41:22.176Z,962.08
2019-03-04T04:42:22.169Z,962.11
2019-03-04T04:43:22.157Z,962.04
2019-03-04T04:44:22.166Z,962.02
2019-03-04T04:45:22.165Z,962.00
2019-03-04T04:46:22.121Z,961.99
2019-03-04T04:47:22.115Z,962.00
2019-03-04T04:48:22.213Z,961.98
2019-03-04T04:49:22.095Z,961.99
2019-03-04T04:50:22.099Z,961.98
2019-03-04T04:51:22.070Z,962.02
2019-03-04T04:52:23.343Z,961.95
2019-03-04T04:53:22.079Z,962.00
2019-03-04T04:54:22.037Z,961.93
2019-03-04T04:55:22.041Z,961.91
2019-03-04T04:56:22.037Z,961.92
2019-03-04T04:57:22.006Z,961.89
2019-03-04T04:58:22.026Z,961.87
2019-03-04T04:59:21.996Z,961.92
2019-03-04T05:00:21.996Z,961.92
2019-03-04T05:01:22.012Z,961.87
2019-03-04T05:02:21.952Z,961.90
2019-03-04T05:03:21.962Z,961.77
2019-03-04T05:04:21.936Z,961.85
2019-03-04T05:05:21.949Z,961.82
2019-03-04T05:06:21.924Z,961.83
2019-03-04T05:07:21.950Z,961.79
2019-03-04T05:08:21.894Z,961.81
2019-03-04T05:09:21.909Z,961.80
2019-03-04T05:10:21.864Z,961.75
2019-03-04T05:11:21.855Z,961.79
2019-03-04T05:12:21.850Z,961.70
2019-03-04T05:13:21.854Z,961.73
2019-03-04T05:14:21.860Z,961.82
2019-03-04T05:15:21.812Z,961.83
2019-03-04T05:16:21.907Z,961.78
2019-03-04T05:17:21.821Z,961.71
2019-03-04T05:18:21.789Z,961.65
2019-03-04T05:19:21.767Z,961.68
2019-03-04T05:20:21.823Z,961.63
2019-03-04T05:21:21.751Z,961.53
2019-03-04T05:22:21.749Z,961.45
2019-03-04T05:23:21.856Z,961.44
2019-03-04T05:24:21.776Z,961.44
2019-03-04T05:25:21.749Z,961.41
2019-03-04T05:26:21.728Z,961.39
2019-03-04T05:27:21.709Z,961.43
2019-03-04T05:28:21.696Z,961.49
2019-03-04T05:29:21.690Z,961.44
2019-03-04T05:30:21.647Z,961.40
2019-03-04T05:31:21.640Z,961.38
2019-03-04T05:32:21.764Z,961.29
2019-03-04T05:33:21.632Z,961.29
2019-03-04T05:34:21.617Z,961.23
2019-03-04T05:35:21.598Z,961.11
2019-03-04T05:36:21.582Z,961.13
2019-03-04T05:37:21.582Z,961.18
2019-03-04T05:38:21.628Z,961.14
2019-03-04T05:39:21.554Z,961.08
2019-03-04T05:40:21.549Z,961.09
2019-03-04T05:41:21.560Z,961.09
2019-03-04T05:42:21.519Z,961.14
2019-03-04T05:43:21.514Z,961.18
2019-03-04T05:44:21.532Z,961.14
2019-03-04T05:45:21.552Z,961.16
2019-03-04T05:46:21.485Z,961.15
2019-03-04T05:47:21.470Z,961.11
2019-03-04T05:48:21.462Z,961.06
2019-03-04T05:49:21.511Z,961.02
2019-03-04T05:50:21.444Z,960.95
2019-03-04T05:51:21.432Z,961.01
2019-03-04T05:52:21.434Z,961.01
2019-03-04T05:53:21.425Z,961.04
2019-03-04T05:54:21.384Z,961.08
2019-03-04T05:55:21.373Z,961.03
2019-03-04T05:56:21.439Z,961.08
2019-03-04T05:57:21.363Z,961.01
2019-03-04T05:58:21.456Z,960.96
2019-03-04T05:59:21.385Z,960.93
2019-03-04T06:00:21.339Z,960.86
2019-03-04T06:01:21.321Z,960.79
2019-03-04T06:02:21.302Z,960.78
2019-03-04T06:03:21.315Z,960.74
2019-03-04T06:04:21.287Z,960.74
2019-03-04T06:05:21.339Z,960.73
2019-03-04T06:06:21.385Z,960.75
2019-03-04T06:07:21.591Z,960.71
2019-03-04T06:08:21.296Z,960.68
2019-03-04T06:09:21.248Z,960.70
2019-03-04T06:10:21.238Z,960.70
2019-03-04T06:11:21.206Z,960.77
2019-03-04T06:12:21.185Z,960.75
2019-03-04T06:13:21.190Z,960.69
2019-03-04T06:14:21.181Z,960.72
2019-03-04T06:15:21.206Z,960.73
2019-03-04T06:16:21.174Z,960.70
2019-03-04T06:17:21.135Z,960.68
2019-03-04T06:18:21.132Z,960.75
2019-03-04T06:19:21.120Z,960.77
2019-03-04T06:20:21.113Z,960.77
2019-03-04T06:21:21.157Z,960.74
2019-03-04T06:22:21.101Z,960.73
2019-03-04T06:23:21.071Z,960.66
2019-03-04T06:24:21.066Z,960.73
2019-03-04T06:25:21.095Z,960.76
2019-03-04T06:26:21.038Z,960.72
2019-03-04T06:27:21.024Z,960.71
2019-03-04T06:28:21.035Z,960.68
2019-03-04T06:29:21.067Z,960.56
2019-03-04T06:30:21.011Z,960.53
2019-03-04T06:31:21.010Z,960.52
2019-03-04T06:32:20.966Z,960.38
2019-03-04T06:33:20.966Z,960.11
2019-03-04T06:34:20.952Z,959.74
2019-03-04T06:35:20.975Z,959.60
2019-03-04T06:36:20.938Z,959.56
2019-03-04T06:37:20.992Z,959.71
2019-03-04T06:38:20.912Z,959.75
2019-03-04T06:39:20.944Z,959.79
2019-03-04T06:40:20.972Z,959.78
2019-03-04T06:41:20.900Z,959.69
2019-03-04T06:42:20.876Z,959.70
2019-03-04T06:43:20.854Z,959.70
2019-03-04T06:44:20.842Z,959.75
2019-03-04T06:45:20.840Z,959.82
2019-03-04T06:46:21.418Z,959.88
2019-03-04T06:47:20.802Z,959.86
2019-03-04T06:48:20.881Z,959.88
2019-03-04T06:49:20.797Z,959.95
2019-03-04T06:50:20.795Z,959.98
2019-03-04T06:51:20.785Z,959.99
2019-03-04T06:52:20.750Z,959.92
2019-03-04T06:53:20.755Z,959.92
2019-03-04T06:54:20.766Z,959.86
2019-03-04T06:55:20.736Z,959.85
2019-03-04T06:56:20.733Z,959.83
2019-03-04T06:57:28.198Z,959.74
2019-03-04T06:58:21.717Z,959.72
2019-03-04T06:59:20.737Z,959.64
2019-03-04T07:00:20.749Z,959.71
2019-03-04T07:01:20.657Z,959.73
2019-03-04T07:02:20.659Z,959.67
2019-03-04T07:03:20.652Z,959.63
2019-03-04T07:04:20.635Z,959.63
2019-03-04T07:05:20.622Z,959.51
2019-03-04T07:06:20.603Z,959.43
2019-03-04T07:07:20.665Z,959.39
2019-03-04T07:08:20.579Z,959.47
2019-03-04T07:09:20.572Z,959.62
2019-03-04T07:10:20.794Z,959.46
2019-03-04T07:11:22.065Z,959.50
2019-03-04T07:12:20.545Z,959.52
2019-03-04T07:13:20.606Z,959.55
2019-03-04T07:14:20.528Z,959.46
2019-03-04T07:15:20.502Z,959.42
2019-03-04T07:16:20.530Z,959.36
2019-03-04T07:17:20.546Z,959.33
2019-03-04T07:18:20.531Z,959.30
2019-03-04T07:19:20.479Z,959.28
2019-03-04T07:20:20.530Z,959.30
2019-03-04T07:21:20.471Z,959.34
2019-03-04T07:22:20.460Z,959.29
2019-03-04T07:23:20.435Z,959.28
2019-03-04T07:24:20.403Z,959.23
2019-03-04T07:25:20.437Z,959.23
2019-03-04T07:26:20.400Z,959.22
2019-03-04T07:27:20.389Z,959.21
2019-03-04T07:28:20.366Z,959.22
2019-03-04T07:29:20.470Z,959.23
2019-03-04T07:30:20.350Z,959.31
2019-03-04T07:31:20.353Z,959.26
2019-03-04T07:32:20.342Z,959.14
2019-03-04T07:33:20.359Z,959.11
2019-03-04T07:34:20.307Z,959.11
2019-03-04T07:35:20.296Z,959.18
2019-03-04T07:36:20.346Z,959.07
2019-03-04T07:37:20.284Z,958.99
2019-03-04T07:38:20.289Z,958.99
2019-03-04T07:39:20.273Z,959.05
2019-03-04T07:40:20.281Z,959.13
2019-03-04T07:41:20.521Z,959.04
2019-03-04T07:42:20.278Z,959.04
2019-03-04T07:43:20.204Z,959.08
2019-03-04T07:44:20.202Z,959.14
2019-03-04T07:45:20.216Z,959.08
2019-03-04T07:46:20.181Z,959.05
2019-03-04T07:47:20.197Z,959.05
2019-03-04T07:48:20.149Z,958.98
2019-03-04T07:49:20.214Z,959.03
2019-03-04T07:50:20.185Z,959.04
2019-03-04T07:51:20.151Z,959.04
2019-03-04T07:52:20.125Z,958.98
2019-03-04T07:53:20.279Z,958.88
2019-03-04T07:54:20.094Z,958.86
2019-03-04T07:55:20.084Z,958.82
2019-03-04T07:56:20.101Z,958.84
2019-03-04T07:57:20.076Z,958.74
2019-03-04T07:58:20.127Z,958.73
2019-03-04T07:59:20.075Z,958.65
2019-03-04T08:00:20.064Z,958.67
2019-03-04T08:01:20.009Z,958.60
2019-03-04T08:02:20.002Z,958.57
2019-03-04T08:03:19.996Z,958.56
2019-03-04T08:04:20.021Z,958.47
2019-03-04T08:05:19.971Z,958.47
2019-03-04T08:06:20.027Z,958.47
2019-03-04T08:07:20.082Z,958.56
2019-03-04T08:08:19.935Z,958.57
2019-03-04T08:09:19.920Z,958.53
2019-03-04T08:10:19.925Z,958.56
2019-03-04T08:11:19.900Z,958.61
2019-03-04T08:12:19.893Z,958.64
2019-03-04T08:13:19.888Z,958.66
2019-03-04T08:14:20.510Z,958.65
2019-03-04T08:15:19.856Z,958.65
2019-03-04T08:16:19.851Z,958.68
2019-03-04T08:17:19.855Z,958.62
2019-03-04T08:18:19.862Z,958.68
2019-03-04T08:19:19.816Z,958.58
2019-03-04T08:20:19.810Z,958.68
2019-03-04T08:21:19.816Z,958.67
2019-03-04T08:22:19.795Z,958.68
2019-03-04T08:23:19.787Z,958.61
2019-03-04T08:24:19.775Z,958.53
2019-03-04T08:25:19.744Z,958.51
2019-03-04T08:26:19.755Z,958.63
2019-03-04T08:27:19.735Z,958.51
2019-03-04T08:28:19.714Z,958.58
2019-03-04T08:29:19.710Z,958.44
2019-03-04T08:30:19.695Z,958.40
2019-03-04T08:31:19.684Z,958.40
2019-03-04T08:32:19.679Z,958.40
2019-03-04T08:33:19.670Z,958.37
2019-03-04T08:34:19.660Z,958.33
2019-03-04T08:35:19.644Z,958.25
2019-03-04T08:36:19.625Z,958.20
2019-03-04T08:37:19.633Z,958.23
2019-03-04T08:38:19.627Z,958.30
2019-03-04T08:39:19.592Z,958.31
2019-03-04T08:40:19.582Z,958.30
2019-03-04T08:41:19.582Z,958.42
2019-03-04T08:42:19.570Z,958.34
2019-03-04T08:43:19.568Z,958.38
2019-03-04T08:44:19.534Z,958.41
2019-03-04T08:45:19.525Z,958.37
2019-03-04T08:46:19.542Z,958.44
2019-03-04T08:47:19.693Z,958.50
2019-03-04T08:48:19.523Z,958.50
2019-03-04T08:49:19.482Z,958.51
2019-03-04T08:50:19.473Z,958.52
2019-03-04T08:51:19.497Z,958.57
2019-03-04T08:52:19.470Z,958.61
2019-03-04T08:53:19.463Z,958.68
2019-03-04T08:54:19.446Z,958.66
2019-03-04T08:55:19.435Z,958.78
2019-03-04T08:56:19.413Z,958.77
2019-03-04T08:57:19.421Z,958.79
2019-03-04T08:58:19.395Z,958.74
2019-03-04T08:59:19.373Z,958.82
2019-03-04T09:00:19.370Z,958.82
2019-03-04T09:01:19.358Z,958.84
2019-03-04T09:02:19.353Z,958.92
2019-03-04T09:03:19.335Z,958.97
2019-03-04T09:04:19.372Z,958.98
2019-03-04T09:05:19.332Z,958.96
2019-03-04T09:06:19.321Z,959.04
2019-03-04T09:07:19.307Z,958.98
2019-03-04T09:08:19.276Z,958.91
2019-03-04T09:09:19.270Z,958.90
2019-03-04T09:10:19.256Z,958.86
2019-03-04T09:11:19.265Z,958.83
2019-03-04T09:12:19.262Z,958.87
2019-03-04T09:13:19.229Z,958.92
2019-03-04T09:14:19.245Z,959.03
2019-03-04T09:15:19.224Z,958.77
2019-03-04T09:16:19.193Z,958.67
2019-03-04T09:17:19.219Z,958.67
2019-03-04T09:18:19.295Z,958.86
2019-03-04T09:19:19.161Z,958.74
2019-03-04T09:20:19.158Z,958.72
2019-03-04T09:21:19.157Z,958.66
2019-03-04T09:22:19.140Z,958.60
2019-03-04T09:23:19.114Z,958.70
2019-03-04T09:24:19.105Z,958.65
2019-03-04T09:25:19.093Z,958.69
2019-03-04T09:26:19.106Z,958.58
2019-03-04T09:27:19.109Z,958.73
2019-03-04T09:28:19.072Z,958.54
2019-03-04T09:29:19.068Z,958.47
2019-03-04T09:30:19.062Z,958.50
2019-03-04T09:31:19.038Z,958.50
2019-03-04T09:32:19.023Z,958.57
2019-03-04T09:33:19.059Z,958.46
2019-03-04T09:34:19.588Z,958.45
2019-03-04T09:35:18.996Z,958.51
2019-03-04T09:36:18.978Z,958.46
2019-03-04T09:37:18.986Z,958.42
2019-03-04T09:38:18.992Z,958.37
2019-03-04T09:39:18.952Z,958.35
2019-03-04T09:40:18.949Z,958.33
2019-03-04T09:41:18.950Z,958.36
2019-03-04T09:42:18.918Z,958.27
2019-03-04T09:43:18.915Z,958.26
2019-03-04T09:44:18.896Z,958.21
2019-03-04T09:45:18.886Z,958.23
2019-03-04T09:46:18.875Z,958.22
2019-03-04T09:47:18.867Z,958.18
2019-03-04T09:48:18.859Z,958.14
2019-03-04T09:49:18.842Z,958.17
2019-03-04T09:50:18.859Z,958.14
2019-03-04T09:51:24.342Z,958.04
2019-03-04T09:52:19.810Z,958.07
2019-03-04T09:53:18.803Z,958.15
2019-03-04T09:54:18.823Z,958.08
2019-03-04T09:55:18.775Z,958.10
2019-03-04T09:56:18.778Z,958.06
2019-03-04T09:57:18.756Z,958.04
2019-03-04T09:58:18.749Z,958.07
2019-03-04T09:59:18.730Z,958.09
2019-03-04T10:00:18.726Z,958.07
2019-03-04T10:01:18.768Z,958.04
2019-03-04T10:02:18.710Z,958.00
2019-03-04T10:03:18.704Z,957.98
2019-03-04T10:04:18.677Z,957.87
2019-03-04T10:05:18.689Z,957.88
2019-03-04T10:06:18.720Z,957.84
2019-03-04T10:07:18.644Z,957.81
2019-03-04T10:08:18.709Z,957.77
2019-03-04T10:09:18.633Z,957.65
2019-03-04T10:10:18.621Z,957.74
2019-03-04T10:11:18.604Z,957.79
2019-03-04T10:12:18.604Z,957.80
2019-03-04T10:13:18.639Z,957.81
2019-03-04T10:14:18.581Z,957.66
2019-03-04T10:15:20.354Z,957.79
2019-03-04T10:16:19.088Z,957.91
2019-03-04T10:17:18.549Z,957.92
2019-03-04T10:18:18.551Z,957.92
2019-03-04T10:19:18.528Z,957.92
2019-03-04T10:20:18.509Z,957.94
2019-03-04T10:21:18.495Z,957.92
2019-03-04T10:22:18.488Z,958.04
2019-03-04T10:23:18.489Z,958.09
2019-03-04T10:24:18.465Z,958.02
2019-03-04T10:25:18.459Z,958.06
2019-03-04T10:26:22.673Z,958.08
2019-03-04T10:27:18.432Z,958.18
2019-03-04T10:28:18.427Z,958.23
2019-03-04T10:29:18.425Z,958.19
2019-03-04T10:30:18.395Z,958.23
2019-03-04T10:31:18.404Z,958.27
2019-03-04T10:32:18.399Z,958.32
2019-03-04T10:33:18.416Z,958.37
2019-03-04T10:34:18.357Z,958.40
2019-03-04T10:35:18.378Z,958.33
2019-03-04T10:36:18.348Z,958.22
2019-03-04T10:37:18.336Z,958.24
2019-03-04T10:38:22.635Z,958.33
2019-03-04T10:39:22.365Z,958.31
2019-03-04T10:40:18.316Z,958.29
2019-03-04T10:41:18.281Z,958.23
2019-03-04T10:42:18.280Z,958.37
2019-03-04T10:43:18.263Z,958.32
2019-03-04T10:44:18.249Z,958.28
2019-03-04T10:45:18.394Z,958.16
2019-03-04T10:46:18.230Z,958.12
2019-03-04T10:47:18.220Z,958.25
2019-03-04T10:48:18.271Z,958.17
2019-03-04T10:49:18.528Z,958.26
2019-03-04T10:50:18.194Z,958.26
2019-03-04T10:51:18.800Z,958.29
2019-03-04T10:52:18.159Z,958.37
2019-03-04T10:53:18.151Z,958.33
2019-03-04T10:54:18.149Z,958.35
2019-03-04T10:55:18.137Z,958.49
2019-03-04T10:56:18.122Z,958.54
2019-03-04T10:57:18.107Z,958.43
2019-03-04T10:58:18.137Z,958.40
2019-03-04T10:59:18.332Z,958.45
2019-03-04T11:00:18.071Z,958.47
2019-03-04T11:01:18.058Z,958.38
2019-03-04T11:02:18.170Z,958.63
2019-03-04T11:03:18.036Z,958.53
2019-03-04T11:04:18.138Z,958.64
2019-03-04T11:05:18.024Z,958.48
2019-03-04T11:06:18.010Z,958.59
2019-03-04T11:07:17.997Z,958.53
2019-03-04T11:08:17.982Z,958.60
2019-03-04T11:09:17.985Z,958.39
2019-03-04T11:10:18.006Z,958.47
2019-03-04T11:11:18.110Z,958.54
2019-03-04T11:12:18.085Z,958.49
2019-03-04T11:13:18.097Z,958.70
2019-03-04T11:14:17.944Z,958.58
2019-03-04T11:15:17.949Z,958.62
2019-03-04T11:16:17.896Z,958.68
2019-03-04T11:17:17.900Z,958.71
2019-03-04T11:18:17.891Z,958.81
2019-03-04T11:19:17.928Z,958.85
2019-03-04T11:20:17.878Z,958.76
2019-03-04T11:21:17.855Z,958.92
2019-03-04T11:22:17.829Z,958.88
2019-03-04T11:23:17.824Z,958.95
2019-03-04T11:24:17.816Z,958.95
2019-03-04T11:25:17.822Z,959.12
2019-03-04T11:26:17.841Z,959.11
2019-03-04T11:27:17.778Z,959.17
2019-03-04T11:28:17.787Z,959.19
2019-03-04T11:29:17.757Z,959.18
2019-03-04T11:30:17.758Z,959.32
2019-03-04T11:31:17.732Z,959.43
2019-03-04T11:32:17.722Z,959.37
2019-03-04T11:33:17.739Z,959.36
2019-03-04T11:34:17.707Z,959.15
2019-03-04T11:35:17.703Z,959.26
2019-03-04T11:36:17.679Z,959.18
2019-03-04T11:37:17.679Z,959.08
2019-03-04T11:38:19.138Z,959.12
2019-03-04T11:39:17.647Z,959.05
2019-03-04T11:40:17.648Z,958.94
2019-03-04T11:41:17.660Z,959.02
2019-03-04T11:42:17.627Z,958.77
2019-03-04T11:43:17.616Z,958.84
2019-03-04T11:44:17.593Z,958.72
2019-03-04T11:45:17.594Z,958.76
2019-03-04T11:46:17.571Z,958.63
2019-03-04T11:47:17.560Z,958.59
2019-03-04T11:48:17.549Z,958.49
2019-03-04T11:49:17.538Z,958.69
2019-03-04T11:50:17.539Z,958.68
2019-03-04T11:51:17.534Z,958.62
2019-03-04T11:52:17.507Z,958.77
2019-03-04T11:53:17.503Z,958.71
2019-03-04T11:54:17.494Z,958.55
2019-03-04T11:55:17.559Z,958.59
2019-03-04T11:56:17.511Z,958.82
2019-03-04T11:57:17.453Z,958.81
2019-03-04T11:58:17.444Z,958.73
2019-03-04T11:59:17.429Z,958.90
2019-03-04T12:00:17.421Z,958.86
2019-03-04T12:01:17.429Z,958.68
2019-03-04T12:02:17.400Z,958.80
2019-03-04T12:03:17.389Z,959.04
2019-03-04T12:04:17.374Z,958.54
2019-03-04T12:05:17.423Z,958.78
2019-03-04T12:06:17.408Z,958.87
2019-03-04T12:07:17.339Z,958.94
2019-03-04T12:08:17.397Z,959.01
2019-03-04T12:09:17.324Z,958.73
2019-03-04T12:10:17.339Z,958.75
2019-03-04T12:11:17.332Z,958.84
2019-03-04T12:12:17.309Z,958.75
2019-03-04T12:13:17.272Z,958.84
2019-03-04T12:14:17.268Z,958.81
2019-03-04T12:15:17.249Z,958.76
2019-03-04T12:16:17.249Z,959.42
2019-03-04T12:17:17.237Z,958.69
2019-03-04T12:18:17.228Z,958.85
2019-03-04T12:19:17.213Z,958.64
2019-03-04T12:20:17.198Z,958.69
2019-03-04T12:21:17.199Z,958.79
2019-03-04T12:22:17.176Z,958.59
2019-03-04T12:23:17.167Z,958.58
2019-03-04T12:24:17.152Z,958.55
2019-03-04T12:25:17.155Z,958.67
2019-03-04T12:26:18.611Z,958.50
2019-03-04T12:27:17.125Z,958.58
2019-03-04T12:28:17.142Z,958.61